Terminal Aerodrome Forecast
Issued by NWS Cleveland, OH

Home | Current Version | Previous Version | Text Only | Print | Product List | Glossary On
Versions: 1 2 3 4 5 6 7 8 9 10 11 12 13 14 15 16 17
000
FTUS41 KCLE 181800 AAA
TAFERI
TAF AMD
KERI 181854Z 1819/1918 01010KT P6SM FEW025 SCT035
      TEMPO 1819/1822 BKN025
     FM190100 04005KT P6SM SCT035
     FM190800 11005KT P6SM SKC
     FM191500 10006KT P6SM SCT040=

USA.gov is the U.S. government's official web portal to all federal, state and local government web resources and services.